sensor_id;sensor_type;location;lat;lon;timestamp;temperature;humidity
18577;DHT22;9418;52.694;13.294;2023-05-07T00:00:45;8.40;99.90
18577;DHT22;9418;52.694;13.294;2023-05-07T00:03:11;8.40;99.90
18577;DHT22;9418;52.694;13.294;2023-05-07T00:05:40;8.40;99.90
18577;DHT22;9418;52.694;13.294;2023-05-07T00:08:06;8.40;99.90
18577;DHT22;9418;52.694;13.294;2023-05-07T00:10:33;8.40;99.90
18577;DHT22;9418;52.694;13.294;2023-05-07T00:13:00;8.40;99.90
18577;DHT22;9418;52.694;13.294;2023-05-07T00:15:26;8.40;99.90
18577;DHT22;9418;52.694;13.294;2023-05-07T00:17:53;8.40;99.90
18577;DHT22;9418;52.694;13.294;2023-05-07T00:20:20;8.30;99.90
18577;DHT22;9418;52.694;13.294;2023-05-07T00:22:47;8.40;99.90
18577;DHT22;9418;52.694;13.294;2023-05-07T00:25:14;8.40;99.90
18577;DHT22;9418;52.694;13.294;2023-05-07T00:27:40;8.40;99.90
18577;DHT22;9418;52.694;13.294;2023-05-07T00:30:07;8.40;99.90
18577;DHT22;9418;52.694;13.294;2023-05-07T00:32:34;8.40;99.90
18577;DHT22;9418;52.694;13.294;2023-05-07T00:35:02;8.40;99.90
18577;DHT22;9418;52.694;13.294;2023-05-07T00:37:28;8.40;99.90
18577;DHT22;9418;52.694;13.294;2023-05-07T00:39:56;8.40;99.90
18577;DHT22;9418;52.694;13.294;2023-05-07T00:42:23;8.40;99.90
18577;DHT22;9418;52.694;13.294;2023-05-07T00:44:50;8.50;99.90
18577;DHT22;9418;52.694;13.294;2023-05-07T00:47:16;8.40;99.90
18577;DHT22;9418;52.694;13.294;2023-05-07T00:49:44;8.50;99.90
18577;DHT22;9418;52.694;13.294;2023-05-07T00:52:13;8.40;99.90
18577;DHT22;9418;52.694;13.294;2023-05-07T00:54:41;8.30;99.90
18577;DHT22;9418;52.694;13.294;2023-05-07T00:57:09;8.20;99.90
18577;DHT22;9418;52.694;13.294;2023-05-07T00:59:36;8.20;99.90
18577;DHT22;9418;52.694;13.294;2023-05-07T01:02:03;8.20;99.90
18577;DHT22;9418;52.694;13.294;2023-05-07T01:04:30;8.20;99.90
18577;DHT22;9418;52.694;13.294;2023-05-07T01:06:57;8.20;99.90
18577;DHT22;9418;52.694;13.294;2023-05-07T01:09:25;8.20;99.90
18577;DHT22;9418;52.694;13.294;2023-05-07T01:11:52;8.30;99.90
18577;DHT22;9418;52.694;13.294;2023-05-07T01:14:21;8.30;99.90
18577;DHT22;9418;52.694;13.294;2023-05-07T01:16:47;8.30;99.90
18577;DHT22;9418;52.694;13.294;2023-05-07T01:19:18;8.30;99.90
18577;DHT22;9418;52.694;13.294;2023-05-07T01:21:46;8.30;99.90
18577;DHT22;9418;52.694;13.294;2023-05-07T01:24:15;8.30;99.90
18577;DHT22;9418;52.694;13.294;2023-05-07T01:26:43;8.30;99.90
18577;DHT22;9418;52.694;13.294;2023-05-07T01:29:09;8.30;99.90
18577;DHT22;9418;52.694;13.294;2023-05-07T01:31:37;8.30;99.90
18577;DHT22;9418;52.694;13.294;2023-05-07T01:34:06;8.30;99.90
18577;DHT22;9418;52.694;13.294;2023-05-07T01:36:34;8.30;99.90
18577;DHT22;9418;52.694;13.294;2023-05-07T01:39:02;8.40;99.90
18577;DHT22;9418;52.694;13.294;2023-05-07T01:41:30;8.40;99.90
18577;DHT22;9418;52.694;13.294;2023-05-07T01:43:58;8.30;99.90
18577;DHT22;9418;52.694;13.294;2023-05-07T01:46:26;8.30;99.90
18577;DHT22;9418;52.694;13.294;2023-05-07T01:48:53;8.30;99.90
18577;DHT22;9418;52.694;13.294;2023-05-07T01:51:19;8.20;99.90
18577;DHT22;9418;52.694;13.294;2023-05-07T01:53:47;8.30;99.90
18577;DHT22;9418;52.694;13.294;2023-05-07T01:56:16;8.30;99.90
18577;DHT22;9418;52.694;13.294;2023-05-07T01:58:44;8.40;99.90
18577;DHT22;9418;52.694;13.294;2023-05-07T02:01:10;8.30;99.90
18577;DHT22;9418;52.694;13.294;2023-05-07T02:03:37;8.30;99.90
18577;DHT22;9418;52.694;13.294;2023-05-07T02:06:04;8.30;99.90
18577;DHT22;9418;52.694;13.294;2023-05-07T02:08:30;8.30;99.90
18577;DHT22;9418;52.694;13.294;2023-05-07T02:10:57;8.30;99.90
18577;DHT22;9418;52.694;13.294;2023-05-07T02:13:24;8.40;99.90
18577;DHT22;9418;52.694;13.294;2023-05-07T02:15:51;8.40;99.90
18577;DHT22;9418;52.694;13.294;2023-05-07T02:18:19;8.30;99.90
18577;DHT22;9418;52.694;13.294;2023-05-07T02:20:45;8.30;99.90
18577;DHT22;9418;52.694;13.294;2023-05-07T02:23:12;8.30;99.90
18577;DHT22;9418;52.694;13.294;2023-05-07T02:25:38;8.30;97.20
18577;DHT22;9418;52.694;13.294;2023-05-07T02:28:05;8.30;99.90
18577;DHT22;9418;52.694;13.294;2023-05-07T02:30:31;8.30;99.90
18577;DHT22;9418;52.694;13.294;2023-05-07T02:32:59;8.30;77.90
18577;DHT22;9418;52.694;13.294;2023-05-07T02:35:26;8.30;81.80
18577;DHT22;9418;52.694;13.294;2023-05-07T02:37:52;8.30;72.10
18577;DHT22;9418;52.694;13.294;2023-05-07T02:40:19;8.30;29.60
18577;DHT22;9418;52.694;13.294;2023-05-07T02:42:46;8.30;34.60
18577;DHT22;9418;52.694;13.294;2023-05-07T02:45:12;8.30;29.70
18577;DHT22;9418;52.694;13.294;2023-05-07T02:47:40;8.30;30.90
18577;DHT22;9418;52.694;13.294;2023-05-07T02:50:08;8.30;33.40
18577;DHT22;9418;52.694;13.294;2023-05-07T02:52:35;8.30;31.10
18577;DHT22;9418;52.694;13.294;2023-05-07T02:55:01;8.30;29.90
18577;DHT22;9418;52.694;13.294;2023-05-07T02:57:28;8.30;37.40
18577;DHT22;9418;52.694;13.294;2023-05-07T02:59:54;8.30;34.50
18577;DHT22;9418;52.694;13.294;2023-05-07T03:02:21;8.30;39.20
18577;DHT22;9418;52.694;13.294;2023-05-07T03:04:48;8.30;42.20
18577;DHT22;9418;52.694;13.294;2023-05-07T03:07:15;8.30;44.90
18577;DHT22;9418;52.694;13.294;2023-05-07T03:09:42;8.30;50.60
18577;DHT22;9418;52.694;13.294;2023-05-07T03:12:09;8.30;44.80
18577;DHT22;9418;52.694;13.294;2023-05-07T03:14:35;8.30;42.50
18577;DHT22;9418;52.694;13.294;2023-05-07T03:17:02;8.30;38.90
18577;DHT22;9418;52.694;13.294;2023-05-07T03:19:28;8.30;38.00
18577;DHT22;9418;52.694;13.294;2023-05-07T03:21:55;8.30;35.70
18577;DHT22;9418;52.694;13.294;2023-05-07T03:24:23;8.20;42.40
18577;DHT22;9418;52.694;13.294;2023-05-07T03:26:50;8.20;41.40
18577;DHT22;9418;52.694;13.294;2023-05-07T03:29:16;8.30;37.20
18577;DHT22;9418;52.694;13.294;2023-05-07T03:31:43;8.20;37.80
18577;DHT22;9418;52.694;13.294;2023-05-07T03:34:10;8.20;46.60
18577;DHT22;9418;52.694;13.294;2023-05-07T03:36:37;8.30;45.00
18577;DHT22;9418;52.694;13.294;2023-05-07T03:39:03;8.20;47.40
18577;DHT22;9418;52.694;13.294;2023-05-07T03:41:32;8.20;54.00
18577;DHT22;9418;52.694;13.294;2023-05-07T03:43:58;8.30;46.80
18577;DHT22;9418;52.694;13.294;2023-05-07T03:46:25;8.30;46.20
18577;DHT22;9418;52.694;13.294;2023-05-07T03:48:53;8.30;45.60
18577;DHT22;9418;52.694;13.294;2023-05-07T03:51:20;8.30;47.90
18577;DHT22;9418;52.694;13.294;2023-05-07T03:53:46;8.30;46.00
18577;DHT22;9418;52.694;13.294;2023-05-07T03:56:13;8.30;50.30
18577;DHT22;9418;52.694;13.294;2023-05-07T03:58:40;8.30;46.50
18577;DHT22;9418;52.694;13.294;2023-05-07T04:01:07;8.30;45.80
18577;DHT22;9418;52.694;13.294;2023-05-07T04:03:33;8.30;46.30
18577;DHT22;9418;52.694;13.294;2023-05-07T04:06:00;8.30;50.20
18577;DHT22;9418;52.694;13.294;2023-05-07T04:08:27;8.30;46.60
18577;DHT22;9418;52.694;13.294;2023-05-07T04:10:56;8.30;46.70
18577;DHT22;9418;52.694;13.294;2023-05-07T04:13:23;8.30;48.40
18577;DHT22;9418;52.694;13.294;2023-05-07T04:15:51;8.30;51.40
18577;DHT22;9418;52.694;13.294;2023-05-07T04:18:18;8.30;49.00
18577;DHT22;9418;52.694;13.294;2023-05-07T04:20:45;8.30;52.90
18577;DHT22;9418;52.694;13.294;2023-05-07T04:23:11;8.30;49.20
18577;DHT22;9418;52.694;13.294;2023-05-07T04:25:38;8.30;58.40
18577;DHT22;9418;52.694;13.294;2023-05-07T04:28:04;8.40;54.40
18577;DHT22;9418;52.694;13.294;2023-05-07T04:30:31;8.40;56.50
18577;DHT22;9418;52.694;13.294;2023-05-07T04:32:59;8.40;60.70
18577;DHT22;9418;52.694;13.294;2023-05-07T04:35:26;8.50;57.10
18577;DHT22;9418;52.694;13.294;2023-05-07T04:37:52;8.40;61.00
18577;DHT22;9418;52.694;13.294;2023-05-07T04:40:19;8.40;63.10
18577;DHT22;9418;52.694;13.294;2023-05-07T04:42:46;8.50;58.50
18577;DHT22;9418;52.694;13.294;2023-05-07T04:45:12;8.40;72.60
18577;DHT22;9418;52.694;13.294;2023-05-07T04:47:39;8.50;66.80
18577;DHT22;9418;52.694;13.294;2023-05-07T04:50:07;8.50;61.10
18577;DHT22;9418;52.694;13.294;2023-05-07T04:52:34;8.60;64.00
18577;DHT22;9418;52.694;13.294;2023-05-07T04:55:01;8.60;68.70
18577;DHT22;9418;52.694;13.294;2023-05-07T04:57:27;8.60;73.30
18577;DHT22;9418;52.694;13.294;2023-05-07T04:59:54;8.60;80.50
18577;DHT22;9418;52.694;13.294;2023-05-07T05:02:20;8.60;74.90
18577;DHT22;9418;52.694;13.294;2023-05-07T05:04:47;8.70;72.40
18577;DHT22;9418;52.694;13.294;2023-05-07T05:07:15;8.70;75.00
18577;DHT22;9418;52.694;13.294;2023-05-07T05:09:41;8.70;75.50
18577;DHT22;9418;52.694;13.294;2023-05-07T05:12:08;8.60;83.70
18577;DHT22;9418;52.694;13.294;2023-05-07T05:14:34;8.60;83.00
18577;DHT22;9418;52.694;13.294;2023-05-07T05:17:02;8.70;76.30
18577;DHT22;9418;52.694;13.294;2023-05-07T05:19:28;8.60;90.20
18577;DHT22;9418;52.694;13.294;2023-05-07T05:21:55;8.60;92.10
18577;DHT22;9418;52.694;13.294;2023-05-07T05:24:23;8.60;92.80
18577;DHT22;9418;52.694;13.294;2023-05-07T05:26:49;8.70;85.70
18577;DHT22;9418;52.694;13.294;2023-05-07T05:29:16;8.60;99.70
18577;DHT22;9418;52.694;13.294;2023-05-07T05:31:42;8.80;86.80
18577;DHT22;9418;52.694;13.294;2023-05-07T05:34:09;8.60;84.30
18577;DHT22;9418;52.694;13.294;2023-05-07T05:36:35;8.60;96.60
18577;DHT22;9418;52.694;13.294;2023-05-07T05:39:02;8.80;94.70
18577;DHT22;9418;52.694;13.294;2023-05-07T05:41:30;8.90;92.90
18577;DHT22;9418;52.694;13.294;2023-05-07T05:43:56;8.90;92.40
18577;DHT22;9418;52.694;13.294;2023-05-07T05:46:23;9.00;99.90
18577;DHT22;9418;52.694;13.294;2023-05-07T05:48:50;9.00;99.90
18577;DHT22;9418;52.694;13.294;2023-05-07T05:51:16;9.20;96.30
18577;DHT22;9418;52.694;13.294;2023-05-07T05:53:43;9.20;99.90
18577;DHT22;9418;52.694;13.294;2023-05-07T05:56:09;9.20;99.90
18577;DHT22;9418;52.694;13.294;2023-05-07T05:58:37;9.40;99.90
18577;DHT22;9418;52.694;13.294;2023-05-07T06:01:04;9.50;99.90
18577;DHT22;9418;52.694;13.294;2023-05-07T06:03:30;9.60;99.90
18577;DHT22;9418;52.694;13.294;2023-05-07T06:05:58;9.70;99.90
18577;DHT22;9418;52.694;13.294;2023-05-07T06:08:25;9.70;99.90
18577;DHT22;9418;52.694;13.294;2023-05-07T06:10:52;9.70;99.90
18577;DHT22;9418;52.694;13.294;2023-05-07T06:13:18;9.70;99.90
18577;DHT22;9418;52.694;13.294;2023-05-07T06:15:46;9.70;99.90
18577;DHT22;9418;52.694;13.294;2023-05-07T06:18:13;9.80;99.90
18577;DHT22;9418;52.694;13.294;2023-05-07T06:20:39;9.90;99.90
18577;DHT22;9418;52.694;13.294;2023-05-07T06:23:06;9.90;99.90
18577;DHT22;9418;52.694;13.294;2023-05-07T06:25:32;10.00;99.90
18577;DHT22;9418;52.694;13.294;2023-05-07T06:27:59;10.10;99.90
18577;DHT22;9418;52.694;13.294;2023-05-07T06:30:25;10.20;99.90
18577;DHT22;9418;52.694;13.294;2023-05-07T06:32:53;10.40;99.90
18577;DHT22;9418;52.694;13.294;2023-05-07T06:35:20;10.40;99.90
18577;DHT22;9418;52.694;13.294;2023-05-07T06:37:47;10.50;99.90
18577;DHT22;9418;52.694;13.294;2023-05-07T06:40:13;10.50;99.90
18577;DHT22;9418;52.694;13.294;2023-05-07T06:42:40;10.50;99.90
18577;DHT22;9418;52.694;13.294;2023-05-07T06:45:08;10.60;99.90
18577;DHT22;9418;52.694;13.294;2023-05-07T06:47:35;10.60;99.90
18577;DHT22;9418;52.694;13.294;2023-05-07T06:50:03;10.60;99.90
18577;DHT22;9418;52.694;13.294;2023-05-07T06:52:30;10.80;99.90
18577;DHT22;9418;52.694;13.294;2023-05-07T06:54:57;11.10;99.90
18577;DHT22;9418;52.694;13.294;2023-05-07T06:57:26;11.20;28.50
18577;DHT22;9418;52.694;13.294;2023-05-07T06:59:52;11.20;99.90
18577;DHT22;9418;52.694;13.294;2023-05-07T07:02:19;11.00;98.20
18577;DHT22;9418;52.694;13.294;2023-05-07T07:04:45;10.90;99.90
18577;DHT22;9418;52.694;13.294;2023-05-07T07:07:13;11.20;99.90
18577;DHT22;9418;52.694;13.294;2023-05-07T07:09:40;11.30;99.90
18577;DHT22;9418;52.694;13.294;2023-05-07T07:12:06;11.80;99.90
18577;DHT22;9418;52.694;13.294;2023-05-07T07:14:33;11.90;83.50
18577;DHT22;9418;52.694;13.294;2023-05-07T07:16:59;12.00;75.00
18577;DHT22;9418;52.694;13.294;2023-05-07T07:19:26;11.80;57.90
18577;DHT22;9418;52.694;13.294;2023-05-07T07:21:53;11.80;39.70
18577;DHT22;9418;52.694;13.294;2023-05-07T07:24:20;11.60;70.40
18577;DHT22;9418;52.694;13.294;2023-05-07T07:26:47;11.70;77.30
18577;DHT22;9418;52.694;13.294;2023-05-07T07:29:13;11.70;54.10
18577;DHT22;9418;52.694;13.294;2023-05-07T07:31:40;11.80;59.90
18577;DHT22;9418;52.694;13.294;2023-05-07T07:34:07;11.70;84.20
18577;DHT22;9418;52.694;13.294;2023-05-07T07:36:33;11.80;71.50
18577;DHT22;9418;52.694;13.294;2023-05-07T07:39:00;12.00;82.10
18577;DHT22;9418;52.694;13.294;2023-05-07T07:41:28;12.00;70.20
18577;DHT22;9418;52.694;13.294;2023-05-07T07:43:55;11.80;82.30
18577;DHT22;9418;52.694;13.294;2023-05-07T07:46:21;12.00;78.70
18577;DHT22;9418;52.694;13.294;2023-05-07T07:48:48;11.80;76.80
18577;DHT22;9418;52.694;13.294;2023-05-07T07:51:14;11.90;69.50
18577;DHT22;9418;52.694;13.294;2023-05-07T07:53:41;12.00;80.90
18577;DHT22;9418;52.694;13.294;2023-05-07T07:56:07;12.00;85.20
18577;DHT22;9418;52.694;13.294;2023-05-07T07:58:35;11.80;99.90
18577;DHT22;9418;52.694;13.294;2023-05-07T08:01:03;12.10;98.70
18577;DHT22;9418;52.694;13.294;2023-05-07T08:03:30;12.10;99.90
18577;DHT22;9418;52.694;13.294;2023-05-07T08:05:58;12.30;99.90
18577;DHT22;9418;52.694;13.294;2023-05-07T08:08:24;12.30;99.90
18577;DHT22;9418;52.694;13.294;2023-05-07T08:10:51;12.50;99.90
18577;DHT22;9418;52.694;13.294;2023-05-07T08:13:18;12.60;99.90
18577;DHT22;9418;52.694;13.294;2023-05-07T08:15:46;12.80;37.10
18577;DHT22;9418;52.694;13.294;2023-05-07T08:18:13;13.20;28.30
18577;DHT22;9418;52.694;13.294;2023-05-07T08:20:40;12.80;52.90
18577;DHT22;9418;52.694;13.294;2023-05-07T08:23:07;13.40;48.30
18577;DHT22;9418;52.694;13.294;2023-05-07T08:25:34;13.40;80.80
18577;DHT22;9418;52.694;13.294;2023-05-07T08:28:01;13.50;85.90
18577;DHT22;9418;52.694;13.294;2023-05-07T08:30:28;13.50;99.90
18577;DHT22;9418;52.694;13.294;2023-05-07T08:32:56;13.90;84.60
18577;DHT22;9418;52.694;13.294;2023-05-07T08:35:23;14.10;99.90
18577;DHT22;9418;52.694;13.294;2023-05-07T08:37:50;14.30;99.90
18577;DHT22;9418;52.694;13.294;2023-05-07T08:40:17;13.80;99.90
18577;DHT22;9418;52.694;13.294;2023-05-07T08:42:44;13.90;99.90
18577;DHT22;9418;52.694;13.294;2023-05-07T08:45:11;14.40;99.90
18577;DHT22;9418;52.694;13.294;2023-05-07T08:47:43;14.50;99.90
18577;DHT22;9418;52.694;13.294;2023-05-07T08:50:12;14.20;99.90
18577;DHT22;9418;52.694;13.294;2023-05-07T08:52:39;14.40;99.90
18577;DHT22;9418;52.694;13.294;2023-05-07T08:55:07;15.30;99.90
18577;DHT22;9418;52.694;13.294;2023-05-07T08:57:34;15.40;99.90
18577;DHT22;9418;52.694;13.294;2023-05-07T09:00:01;15.00;99.90
18577;DHT22;9418;52.694;13.294;2023-05-07T09:02:29;14.90;99.90
18577;DHT22;9418;52.694;13.294;2023-05-07T09:04:55;14.40;99.90
18577;DHT22;9418;52.694;13.294;2023-05-07T09:07:24;15.00;99.90
18577;DHT22;9418;52.694;13.294;2023-05-07T09:09:51;15.60;99.90
18577;DHT22;9418;52.694;13.294;2023-05-07T09:12:18;15.50;99.90
18577;DHT22;9418;52.694;13.294;2023-05-07T09:14:45;15.50;99.90
18577;DHT22;9418;52.694;13.294;2023-05-07T09:17:12;14.70;99.90
18577;DHT22;9418;52.694;13.294;2023-05-07T09:19:38;15.50;99.90
18577;DHT22;9418;52.694;13.294;2023-05-07T09:22:05;15.00;99.90
18577;DHT22;9418;52.694;13.294;2023-05-07T09:24:34;15.80;99.90
18577;DHT22;9418;52.694;13.294;2023-05-07T09:27:03;15.40;99.90
18577;DHT22;9418;52.694;13.294;2023-05-07T09:29:31;15.20;99.90
18577;DHT22;9418;52.694;13.294;2023-05-07T09:32:00;14.80;99.90
18577;DHT22;9418;52.694;13.294;2023-05-07T09:34:28;14.50;99.90
18577;DHT22;9418;52.694;13.294;2023-05-07T09:36:54;14.70;99.90
18577;DHT22;9418;52.694;13.294;2023-05-07T09:39:22;15.40;99.90
18577;DHT22;9418;52.694;13.294;2023-05-07T09:41:50;15.40;99.90
18577;DHT22;9418;52.694;13.294;2023-05-07T09:44:20;16.10;99.90
18577;DHT22;9418;52.694;13.294;2023-05-07T09:46:49;17.50;99.90
18577;DHT22;9418;52.694;13.294;2023-05-07T09:49:21;16.50;99.90
18577;DHT22;9418;52.694;13.294;2023-05-07T09:51:49;16.10;99.90
18577;DHT22;9418;52.694;13.294;2023-05-07T09:54:16;15.80;99.90
18577;DHT22;9418;52.694;13.294;2023-05-07T09:56:43;14.90;99.90
18577;DHT22;9418;52.694;13.294;2023-05-07T09:59:13;14.70;99.90
18577;DHT22;9418;52.694;13.294;2023-05-07T10:01:41;14.50;99.90
18577;DHT22;9418;52.694;13.294;2023-05-07T10:04:08;14.60;99.90
18577;DHT22;9418;52.694;13.294;2023-05-07T10:06:36;16.00;99.90
18577;DHT22;9418;52.694;13.294;2023-05-07T10:09:03;15.80;99.90
18577;DHT22;9418;52.694;13.294;2023-05-07T10:11:32;16.40;99.90
18577;DHT22;9418;52.694;13.294;2023-05-07T10:13:59;15.70;99.90
18577;DHT22;9418;52.694;13.294;2023-05-07T10:16:30;15.70;99.90
18577;DHT22;9418;52.694;13.294;2023-05-07T10:18:58;15.10;99.90
18577;DHT22;9418;52.694;13.294;2023-05-07T10:21:27;15.40;99.90
18577;DHT22;9418;52.694;13.294;2023-05-07T10:23:59;15.10;99.90
18577;DHT22;9418;52.694;13.294;2023-05-07T10:26:27;14.40;99.90
18577;DHT22;9418;52.694;13.294;2023-05-07T10:28:59;14.70;99.90
18577;DHT22;9418;52.694;13.294;2023-05-07T10:31:43;14.60;99.90
18577;DHT22;9418;52.694;13.294;2023-05-07T10:34:15;15.10;99.90
18577;DHT22;9418;52.694;13.294;2023-05-07T10:36:43;15.90;99.90
18577;DHT22;9418;52.694;13.294;2023-05-07T10:39:10;16.60;99.90
18577;DHT22;9418;52.694;13.294;2023-05-07T10:41:37;15.80;99.90
18577;DHT22;9418;52.694;13.294;2023-05-07T10:44:04;16.30;99.90
18577;DHT22;9418;52.694;13.294;2023-05-07T10:46:32;15.80;99.90
18577;DHT22;9418;52.694;13.294;2023-05-07T10:49:07;15.80;99.90
18577;DHT22;9418;52.694;13.294;2023-05-07T10:51:35;15.40;99.90
18577;DHT22;9418;52.694;13.294;2023-05-07T10:54:21;16.10;99.90
18577;DHT22;9418;52.694;13.294;2023-05-07T10:56:49;16.30;99.90
18577;DHT22;9418;52.694;13.294;2023-05-07T10:59:34;16.70;99.90
18577;DHT22;9418;52.694;13.294;2023-05-07T11:02:08;17.20;99.90
18577;DHT22;9418;52.694;13.294;2023-05-07T11:04:36;17.20;99.90
18577;DHT22;9418;52.694;13.294;2023-05-07T11:10:00;16.10;99.90
18577;DHT22;9418;52.694;13.294;2023-05-07T11:12:48;16.40;99.90
18577;DHT22;9418;52.694;13.294;2023-05-07T11:15:40;16.50;99.90
18577;DHT22;9418;52.694;13.294;2023-05-07T11:18:10;16.70;99.90
18577;DHT22;9418;52.694;13.294;2023-05-07T11:20:54;17.10;99.90
18577;DHT22;9418;52.694;13.294;2023-05-07T11:26:21;17.00;99.90
18577;DHT22;9418;52.694;13.294;2023-05-07T11:28:48;17.40;99.90
18577;DHT22;9418;52.694;13.294;2023-05-07T11:31:21;18.70;99.90
18577;DHT22;9418;52.694;13.294;2023-05-07T11:33:50;18.50;99.90
18577;DHT22;9418;52.694;13.294;2023-05-07T11:36:16;16.80;99.90
18577;DHT22;9418;52.694;13.294;2023-05-07T11:38:44;16.20;99.90
18577;DHT22;9418;52.694;13.294;2023-05-07T11:41:11;16.60;99.90
18577;DHT22;9418;52.694;13.294;2023-05-07T11:43:37;16.70;99.90
18577;DHT22;9418;52.694;13.294;2023-05-07T11:46:08;16.60;99.90
18577;DHT22;9418;52.694;13.294;2023-05-07T11:48:35;16.90;99.90
18577;DHT22;9418;52.694;13.294;2023-05-07T11:51:04;17.90;99.90
18577;DHT22;9418;52.694;13.294;2023-05-07T11:53:36;18.20;99.90
18577;DHT22;9418;52.694;13.294;2023-05-07T11:56:06;18.90;99.90
18577;DHT22;9418;52.694;13.294;2023-05-07T11:58:33;19.60;99.90
18577;DHT22;9418;52.694;13.294;2023-05-07T12:00:59;20.10;99.90
18577;DHT22;9418;52.694;13.294;2023-05-07T12:03:26;20.10;99.90
18577;DHT22;9418;52.694;13.294;2023-05-07T12:05:53;20.30;99.90
18577;DHT22;9418;52.694;13.294;2023-05-07T12:08:22;19.70;99.90
18577;DHT22;9418;52.694;13.294;2023-05-07T12:10:49;20.20;99.90
18577;DHT22;9418;52.694;13.294;2023-05-07T12:13:16;19.80;99.90
18577;DHT22;9418;52.694;13.294;2023-05-07T12:15:43;19.40;99.90
18577;DHT22;9418;52.694;13.294;2023-05-07T12:18:10;19.60;99.90
18577;DHT22;9418;52.694;13.294;2023-05-07T12:20:37;20.00;99.90
18577;DHT22;9418;52.694;13.294;2023-05-07T12:23:04;19.60;99.90
18577;DHT22;9418;52.694;13.294;2023-05-07T12:25:34;19.60;99.90
18577;DHT22;9418;52.694;13.294;2023-05-07T12:28:01;19.60;99.90
18577;DHT22;9418;52.694;13.294;2023-05-07T12:30:28;20.10;99.90
18577;DHT22;9418;52.694;13.294;2023-05-07T12:32:55;19.40;99.90
18577;DHT22;9418;52.694;13.294;2023-05-07T12:35:28;19.20;99.90
18577;DHT22;9418;52.694;13.294;2023-05-07T12:37:55;19.10;99.90
18577;DHT22;9418;52.694;13.294;2023-05-07T12:40:22;19.70;99.90
18577;DHT22;9418;52.694;13.294;2023-05-07T12:42:53;19.90;99.90
18577;DHT22;9418;52.694;13.294;2023-05-07T12:45:20;19.10;99.90
18577;DHT22;9418;52.694;13.294;2023-05-07T12:47:47;18.30;99.90
18577;DHT22;9418;52.694;13.294;2023-05-07T12:50:14;18.50;99.90
18577;DHT22;9418;52.694;13.294;2023-05-07T12:52:42;19.10;99.90
18577;DHT22;9418;52.694;13.294;2023-05-07T12:55:12;18.90;99.90
18577;DHT22;9418;52.694;13.294;2023-05-07T12:57:39;18.90;99.90
18577;DHT22;9418;52.694;13.294;2023-05-07T13:00:08;18.30;99.90
18577;DHT22;9418;52.694;13.294;2023-05-07T13:02:37;19.10;99.90
18577;DHT22;9418;52.694;13.294;2023-05-07T13:05:05;19.70;99.90
18577;DHT22;9418;52.694;13.294;2023-05-07T13:07:32;18.90;99.90
18577;DHT22;9418;52.694;13.294;2023-05-07T13:09:58;17.90;99.90
18577;DHT22;9418;52.694;13.294;2023-05-07T13:12:25;18.40;99.90
18577;DHT22;9418;52.694;13.294;2023-05-07T13:14:51;17.50;99.90
18577;DHT22;9418;52.694;13.294;2023-05-07T13:17:19;17.50;99.90
18577;DHT22;9418;52.694;13.294;2023-05-07T13:19:46;18.00;99.90
18577;DHT22;9418;52.694;13.294;2023-05-07T13:22:12;18.50;99.90
18577;DHT22;9418;52.694;13.294;2023-05-07T13:24:39;19.30;99.90
18577;DHT22;9418;52.694;13.294;2023-05-07T13:27:07;19.00;99.90
18577;DHT22;9418;52.694;13.294;2023-05-07T13:29:33;18.80;99.90
18577;DHT22;9418;52.694;13.294;2023-05-07T13:32:00;18.50;99.90
18577;DHT22;9418;52.694;13.294;2023-05-07T13:34:28;19.30;99.90
18577;DHT22;9418;52.694;13.294;2023-05-07T13:36:55;19.50;99.90
18577;DHT22;9418;52.694;13.294;2023-05-07T13:39:22;19.00;99.90
18577;DHT22;9418;52.694;13.294;2023-05-07T13:41:48;19.60;99.90
18577;DHT22;9418;52.694;13.294;2023-05-07T13:44:15;20.00;99.90
18577;DHT22;9418;52.694;13.294;2023-05-07T13:46:41;20.50;99.90
18577;DHT22;9418;52.694;13.294;2023-05-07T13:49:08;20.80;99.90
18577;DHT22;9418;52.694;13.294;2023-05-07T13:51:37;21.10;99.90
18577;DHT22;9418;52.694;13.294;2023-05-07T13:54:04;21.00;99.90
18577;DHT22;9418;52.694;13.294;2023-05-07T13:56:31;19.10;99.90
18577;DHT22;9418;52.694;13.294;2023-05-07T13:58:57;18.10;99.90
18577;DHT22;9418;52.694;13.294;2023-05-07T14:01:24;17.90;99.90
18577;DHT22;9418;52.694;13.294;2023-05-07T14:03:50;18.60;99.90
18577;DHT22;9418;52.694;13.294;2023-05-07T14:06:17;18.40;99.90
18577;DHT22;9418;52.694;13.294;2023-05-07T14:08:45;19.00;99.90
18577;DHT22;9418;52.694;13.294;2023-05-07T14:11:11;20.10;99.90
18577;DHT22;9418;52.694;13.294;2023-05-07T14:13:38;21.20;99.90
18577;DHT22;9418;52.694;13.294;2023-05-07T14:16:05;19.90;99.90
18577;DHT22;9418;52.694;13.294;2023-05-07T14:18:32;19.60;99.90
18577;DHT22;9418;52.694;13.294;2023-05-07T14:20:59;19.90;99.90
18577;DHT22;9418;52.694;13.294;2023-05-07T14:23:26;19.90;99.90
18577;DHT22;9418;52.694;13.294;2023-05-07T14:25:54;20.00;99.90
18577;DHT22;9418;52.694;13.294;2023-05-07T14:28:22;19.00;99.90
18577;DHT22;9418;52.694;13.294;2023-05-07T14:30:49;18.40;99.90
18577;DHT22;9418;52.694;13.294;2023-05-07T14:33:15;19.70;99.90
18577;DHT22;9418;52.694;13.294;2023-05-07T14:35:42;20.00;99.90
18577;DHT22;9418;52.694;13.294;2023-05-07T14:38:13;20.30;99.90
18577;DHT22;9418;52.694;13.294;2023-05-07T14:40:39;20.70;99.90
18577;DHT22;9418;52.694;13.294;2023-05-07T14:43:07;20.00;99.90
18577;DHT22;9418;52.694;13.294;2023-05-07T14:45:34;18.90;99.90
18577;DHT22;9418;52.694;13.294;2023-05-07T14:48:00;19.30;99.90
18577;DHT22;9418;52.694;13.294;2023-05-07T14:50:27;18.50;99.90
18577;DHT22;9418;52.694;13.294;2023-05-07T14:52:54;18.40;99.90
18577;DHT22;9418;52.694;13.294;2023-05-07T14:55:20;18.00;99.90
18577;DHT22;9418;52.694;13.294;2023-05-07T14:57:47;18.10;99.90
18577;DHT22;9418;52.694;13.294;2023-05-07T15:00:15;17.50;99.90
18577;DHT22;9418;52.694;13.294;2023-05-07T15:02:42;18.30;99.90
18577;DHT22;9418;52.694;13.294;2023-05-07T15:05:08;19.40;99.90
18577;DHT22;9418;52.694;13.294;2023-05-07T15:07:35;19.70;99.90
18577;DHT22;9418;52.694;13.294;2023-05-07T15:10:01;20.20;99.90
18577;DHT22;9418;52.694;13.294;2023-05-07T15:12:28;20.10;99.90
18577;DHT22;9418;52.694;13.294;2023-05-07T15:14:55;20.00;99.90
18577;DHT22;9418;52.694;13.294;2023-05-07T15:17:23;19.00;99.90
18577;DHT22;9418;52.694;13.294;2023-05-07T15:19:49;19.40;99.90
18577;DHT22;9418;52.694;13.294;2023-05-07T15:22:16;19.40;99.90
18577;DHT22;9418;52.694;13.294;2023-05-07T15:24:42;19.20;99.90
18577;DHT22;9418;52.694;13.294;2023-05-07T15:27:10;18.50;99.90
18577;DHT22;9418;52.694;13.294;2023-05-07T15:29:36;17.70;99.90
18577;DHT22;9418;52.694;13.294;2023-05-07T15:32:03;17.80;99.90
18577;DHT22;9418;52.694;13.294;2023-05-07T15:34:31;18.70;99.90
18577;DHT22;9418;52.694;13.294;2023-05-07T15:36:58;19.90;99.90
18577;DHT22;9418;52.694;13.294;2023-05-07T15:39:24;19.40;99.90
18577;DHT22;9418;52.694;13.294;2023-05-07T15:41:51;18.80;99.90
18577;DHT22;9418;52.694;13.294;2023-05-07T15:44:17;16.90;99.90